createdAt,value
2017-12-17T00:00:32.260Z,0.60
2017-12-17T00:03:01.003Z,0.70
2017-12-17T00:05:29.812Z,0.60
2017-12-17T00:07:59.150Z,0.60
2017-12-17T00:10:27.763Z,0.60
2017-12-17T00:12:56.215Z,0.60
2017-12-17T00:15:24.611Z,0.60
2017-12-17T00:17:53.011Z,0.70
2017-12-17T00:20:21.082Z,0.70
2017-12-17T00:22:49.473Z,0.70
2017-12-17T00:25:17.826Z,0.70
2017-12-17T00:27:46.764Z,0.80
2017-12-17T00:30:15.993Z,0.80
2017-12-17T00:32:44.698Z,0.80
2017-12-17T00:35:13.437Z,0.90
2017-12-17T00:37:42.291Z,0.80
2017-12-17T00:40:10.995Z,0.90
2017-12-17T00:42:39.762Z,1.00
2017-12-17T00:45:08.511Z,1.00
2017-12-17T00:47:36.854Z,1.00
2017-12-17T00:50:05.246Z,1.00
2017-12-17T00:52:33.591Z,1.00
2017-12-17T00:55:02.306Z,1.00
2017-12-17T00:57:31.012Z,1.00
2017-12-17T01:00:00.479Z,1.10
2017-12-17T01:02:29.006Z,1.00
2017-12-17T01:04:58.495Z,1.10
2017-12-17T01:07:27.215Z,1.10
2017-12-17T01:09:55.942Z,1.20
2017-12-17T01:12:24.668Z,1.20
2017-12-17T01:14:53.370Z,1.30
2017-12-17T01:17:22.513Z,1.30
2017-12-17T01:19:50.887Z,1.30
2017-12-17T01:22:19.630Z,1.30
2017-12-17T01:24:49.098Z,1.30
2017-12-17T01:27:17.792Z,1.30
2017-12-17T01:29:46.507Z,1.40
2017-12-17T01:32:15.994Z,1.40
2017-12-17T01:34:44.697Z,1.40
2017-12-17T01:37:14.182Z,1.50
2017-12-17T01:39:42.890Z,1.40
2017-12-17T01:42:12.040Z,1.40
2017-12-17T01:44:40.884Z,1.40
2017-12-17T01:47:10.035Z,1.50
2017-12-17T01:49:38.079Z,1.50
2017-12-17T01:52:06.474Z,1.60
2017-12-17T01:54:34.526Z,1.50
2017-12-17T01:57:02.559Z,1.50
2017-12-17T01:59:30.599Z,1.50
2017-12-17T02:01:59.300Z,1.50
2017-12-17T02:04:27.819Z,1.50
2017-12-17T02:06:56.676Z,1.40
2017-12-17T02:09:27.301Z,1.50
2017-12-17T02:11:56.911Z,1.50
2017-12-17T02:14:25.044Z,1.40
2017-12-17T02:16:53.859Z,1.50
2017-12-17T02:19:21.897Z,1.40
2017-12-17T02:21:50.528Z,1.50
2017-12-17T02:24:18.654Z,1.40
2017-12-17T02:26:47.471Z,1.50
2017-12-17T02:29:15.498Z,1.40
2017-12-17T02:31:45.060Z,1.40
2017-12-17T02:34:13.127Z,1.40
2017-12-17T02:36:41.174Z,1.40
2017-12-17T02:39:09.982Z,1.30
2017-12-17T02:41:38.011Z,1.30
2017-12-17T02:44:06.147Z,1.30
2017-12-17T02:46:34.202Z,1.40
2017-12-17T02:49:02.231Z,1.40
2017-12-17T02:51:30.353Z,1.40
2017-12-17T02:53:58.391Z,1.50
2017-12-17T02:56:27.222Z,1.40
2017-12-17T02:58:55.253Z,1.40
2017-12-17T03:01:24.063Z,1.40
2017-12-17T03:03:52.086Z,1.40
2017-12-17T03:06:20.195Z,1.50
2017-12-17T03:08:49.327Z,1.50
2017-12-17T03:11:17.563Z,1.40
2017-12-17T03:13:46.508Z,1.50
2017-12-17T03:16:14.563Z,1.50
2017-12-17T03:18:42.762Z,1.60
2017-12-17T03:21:10.810Z,1.50
2017-12-17T03:23:38.870Z,1.50
2017-12-17T03:26:06.898Z,1.50
2017-12-17T03:28:35.035Z,1.40
2017-12-17T03:31:03.058Z,1.40
2017-12-17T03:33:31.107Z,1.40
2017-12-17T03:35:59.151Z,1.40
2017-12-17T03:38:27.190Z,1.40
2017-12-17T03:40:55.978Z,1.40
2017-12-17T03:43:24.878Z,1.30
2017-12-17T03:45:53.734Z,1.30
2017-12-17T03:48:22.037Z,1.30
2017-12-17T03:50:50.253Z,1.30
2017-12-17T03:53:18.306Z,1.30
2017-12-17T03:55:46.352Z,1.30
2017-12-17T03:58:14.386Z,1.40
2017-12-17T04:00:42.427Z,1.40
2017-12-17T04:03:10.888Z,1.40
2017-12-17T04:05:39.693Z,1.40
2017-12-17T04:08:07.718Z,1.40
2017-12-17T04:10:35.758Z,1.50
2017-12-17T04:13:03.788Z,1.40
2017-12-17T04:15:32.602Z,1.40
2017-12-17T04:18:00.642Z,1.40
2017-12-17T04:20:28.688Z,1.40
2017-12-17T04:22:56.723Z,1.40
2017-12-17T04:25:25.099Z,1.40
2017-12-17T04:27:54.198Z,1.40
2017-12-17T04:30:22.579Z,1.30
2017-12-17T04:32:50.602Z,1.30
2017-12-17T04:35:18.683Z,1.30
2017-12-17T04:37:46.707Z,1.30
2017-12-17T04:40:15.410Z,1.30
2017-12-17T04:42:43.794Z,1.30
2017-12-17T04:45:11.815Z,1.30
2017-12-17T04:47:40.202Z,1.20
2017-12-17T04:50:08.260Z,1.10
2017-12-17T04:52:37.071Z,1.10
2017-12-17T04:55:06.222Z,1.10
2017-12-17T04:57:34.583Z,1.00
2017-12-17T05:00:03.282Z,1.10
2017-12-17T05:02:31.674Z,1.10
2017-12-17T05:04:59.702Z,1.20
2017-12-17T05:07:27.743Z,1.20
2017-12-17T05:09:56.883Z,1.20
2017-12-17T05:12:24.901Z,1.10
2017-12-17T05:14:53.282Z,1.10
2017-12-17T05:17:21.623Z,1.20
2017-12-17T05:19:49.990Z,1.10
2017-12-17T05:22:18.370Z,1.10
2017-12-17T05:24:46.439Z,1.10
2017-12-17T05:27:15.027Z,1.10
2017-12-17T05:29:43.418Z,1.10
2017-12-17T05:32:11.422Z,1.20
2017-12-17T05:34:39.798Z,1.20
2017-12-17T05:37:07.837Z,1.20
2017-12-17T05:39:36.384Z,1.10
2017-12-17T05:42:05.246Z,1.10
2017-12-17T05:44:33.699Z,1.10
2017-12-17T05:47:02.055Z,1.20
2017-12-17T05:49:30.122Z,1.20
2017-12-17T05:51:58.827Z,1.20
2017-12-17T05:54:26.866Z,1.10
2017-12-17T05:56:56.011Z,1.10
2017-12-17T05:59:24.706Z,1.10
2017-12-17T06:01:52.727Z,1.10
2017-12-17T06:04:21.571Z,1.00
2017-12-17T06:06:49.768Z,1.00
2017-12-17T06:09:18.474Z,1.00
2017-12-17T06:11:46.918Z,1.10
2017-12-17T06:14:14.953Z,1.10
2017-12-17T06:16:43.651Z,1.10
2017-12-17T06:19:11.671Z,1.10
2017-12-17T06:21:39.699Z,1.10
2017-12-17T06:24:07.717Z,1.10
2017-12-17T06:26:36.094Z,1.10
2017-12-17T06:29:04.122Z,1.10
2017-12-17T06:31:32.149Z,1.00
2017-12-17T06:34:00.849Z,1.00
2017-12-17T06:36:29.636Z,1.00
2017-12-17T06:38:58.939Z,1.00
2017-12-17T06:41:28.419Z,1.00
2017-12-17T06:43:56.670Z,0.90
2017-12-17T06:46:24.727Z,1.00
2017-12-17T06:48:52.869Z,1.00
2017-12-17T06:51:21.986Z,1.00
2017-12-17T06:53:50.099Z,0.90
2017-12-17T06:56:18.110Z,1.00
2017-12-17T06:58:46.915Z,1.00
2017-12-17T07:01:15.696Z,1.00
2017-12-17T07:03:44.950Z,1.00
2017-12-17T07:06:13.004Z,0.90
2017-12-17T07:08:41.700Z,1.00
2017-12-17T07:11:09.743Z,1.00
2017-12-17T07:13:37.779Z,1.00
2017-12-17T07:16:06.579Z,1.10
2017-12-17T07:18:35.707Z,1.10
2017-12-17T07:21:03.736Z,1.00
2017-12-17T07:23:32.294Z,1.10
2017-12-17T07:26:00.434Z,1.10
2017-12-17T07:28:28.610Z,1.10
2017-12-17T07:30:57.003Z,1.10
2017-12-17T07:33:25.239Z,1.10
2017-12-17T07:35:54.050Z,1.10
2017-12-17T07:38:22.126Z,1.10
2017-12-17T07:40:50.200Z,1.10
2017-12-17T07:43:18.227Z,1.10
2017-12-17T07:45:46.274Z,1.10
2017-12-17T07:48:14.517Z,1.10
2017-12-17T07:50:42.571Z,1.20
2017-12-17T07:53:11.370Z,1.10
2017-12-17T07:55:40.820Z,1.10
2017-12-17T07:58:09.204Z,1.10
2017-12-17T08:00:37.223Z,1.10
2017-12-17T08:03:06.020Z,1.10
2017-12-17T08:05:35.131Z,1.20
2017-12-17T08:08:03.182Z,1.10
2017-12-17T08:10:32.543Z,1.10
2017-12-17T08:13:00.594Z,1.00
2017-12-17T08:15:28.636Z,1.10
2017-12-17T08:17:56.699Z,1.10
2017-12-17T08:20:25.502Z,1.20
2017-12-17T08:22:54.382Z,1.10
2017-12-17T08:25:23.371Z,1.10
2017-12-17T08:27:52.577Z,1.10
2017-12-17T08:30:21.176Z,1.10
2017-12-17T08:32:49.224Z,1.10
2017-12-17T08:35:18.354Z,1.20
2017-12-17T08:37:46.713Z,1.20
2017-12-17T08:40:15.594Z,1.20
2017-12-17T08:42:44.773Z,1.20
2017-12-17T08:45:13.170Z,1.20
2017-12-17T08:47:42.635Z,1.20
2017-12-17T08:50:11.347Z,1.10
2017-12-17T08:52:39.702Z,1.20
2017-12-17T08:55:09.057Z,1.20
2017-12-17T08:57:37.458Z,1.30
2017-12-17T09:00:05.615Z,1.30
2017-12-17T09:02:34.431Z,1.30
2017-12-17T09:05:02.470Z,1.30
2017-12-17T09:07:31.591Z,1.30
2017-12-17T09:09:59.620Z,1.20
2017-12-17T09:12:28.340Z,1.30
2017-12-17T09:14:57.135Z,1.30
2017-12-17T09:17:25.275Z,1.30
2017-12-17T09:19:53.634Z,1.30
2017-12-17T09:22:22.016Z,1.20
2017-12-17T09:24:50.072Z,1.20
2017-12-17T09:27:18.488Z,1.20
2017-12-17T09:29:46.843Z,1.10
2017-12-17T09:32:15.223Z,1.10
2017-12-17T09:34:43.578Z,1.10
2017-12-17T09:37:11.986Z,1.30
2017-12-17T09:39:40.689Z,1.20
2017-12-17T09:42:09.410Z,1.20
2017-12-17T09:44:38.872Z,1.40
2017-12-17T09:47:06.927Z,1.30
2017-12-17T09:49:35.626Z,1.30
2017-12-17T09:52:03.675Z,1.40
2017-12-17T09:54:31.711Z,1.40
2017-12-17T09:57:00.523Z,1.60
2017-12-17T09:59:29.410Z,1.60
2017-12-17T10:01:57.461Z,1.70
2017-12-17T10:04:25.895Z,1.80
2017-12-17T10:06:53.947Z,1.90
2017-12-17T10:09:22.006Z,1.80
2017-12-17T10:11:50.808Z,1.70
2017-12-17T10:14:18.868Z,1.70
2017-12-17T10:16:46.907Z,1.70
2017-12-17T10:19:15.333Z,1.80
2017-12-17T10:21:43.351Z,1.80
2017-12-17T10:24:11.806Z,1.70
2017-12-17T10:26:40.511Z,1.90
2017-12-17T10:29:08.922Z,2.00
2017-12-17T10:31:37.788Z,2.00
2017-12-17T10:34:06.161Z,1.90
2017-12-17T10:36:34.252Z,1.90
2017-12-17T10:39:03.035Z,1.80
2017-12-17T10:41:31.111Z,1.80
2017-12-17T10:43:59.237Z,1.70
2017-12-17T10:46:27.270Z,1.70
2017-12-17T10:48:55.326Z,1.50
2017-12-17T10:51:24.058Z,1.50
2017-12-17T10:53:53.519Z,1.40
2017-12-17T10:56:21.687Z,1.40
2017-12-17T10:58:49.826Z,1.40
2017-12-17T11:01:17.886Z,1.50
2017-12-17T11:03:46.257Z,1.60
2017-12-17T11:06:15.401Z,1.60
2017-12-17T11:08:43.786Z,1.50
2017-12-17T11:11:11.847Z,1.50
2017-12-17T11:13:40.775Z,1.50
2017-12-17T11:16:09.974Z,1.90
2017-12-17T11:18:38.175Z,1.80
2017-12-17T11:21:07.374Z,2.40
2017-12-17T11:23:36.872Z,2.40
2017-12-17T11:26:05.254Z,2.40
2017-12-17T11:28:34.414Z,2.20
2017-12-17T11:31:03.007Z,2.10
2017-12-17T11:33:31.494Z,2.20
2017-12-17T11:35:59.532Z,2.30
2017-12-17T11:38:28.062Z,2.20
2017-12-17T11:40:56.462Z,1.90
2017-12-17T11:43:25.296Z,1.80
2017-12-17T11:45:54.022Z,1.70
2017-12-17T11:48:22.398Z,1.70
2017-12-17T11:50:50.524Z,1.60
2017-12-17T11:53:18.555Z,1.70
2017-12-17T11:55:46.955Z,1.80
2017-12-17T11:58:15.349Z,1.80
2017-12-17T12:00:43.418Z,1.70
2017-12-17T12:03:12.138Z,1.60
2017-12-17T12:05:40.940Z,1.60
2017-12-17T12:08:08.978Z,1.60
2017-12-17T12:10:37.791Z,1.60
2017-12-17T12:13:06.166Z,1.50
2017-12-17T12:15:34.214Z,1.50
2017-12-17T12:18:02.268Z,1.60
2017-12-17T12:20:31.755Z,1.50
2017-12-17T12:23:00.127Z,1.40
2017-12-17T12:25:28.173Z,1.50
2017-12-17T12:27:56.243Z,1.50
2017-12-17T12:30:24.651Z,1.50
2017-12-17T12:32:53.189Z,1.50
2017-12-17T12:35:21.243Z,1.50
2017-12-17T12:37:49.643Z,1.60
2017-12-17T12:40:17.679Z,1.50
2017-12-17T12:42:46.496Z,1.50
2017-12-17T12:45:15.362Z,1.50
2017-12-17T12:47:44.186Z,1.50
2017-12-17T12:50:12.718Z,1.50
2017-12-17T12:52:41.470Z,1.60
2017-12-17T12:55:09.549Z,1.60
2017-12-17T12:57:37.602Z,1.70
2017-12-17T13:00:05.635Z,1.70
2017-12-17T13:02:34.069Z,1.60
2017-12-17T13:05:02.587Z,1.60
2017-12-17T13:07:30.730Z,1.60
2017-12-17T13:09:58.867Z,1.60
2017-12-17T13:12:27.068Z,1.60
2017-12-17T13:14:55.500Z,1.60
2017-12-17T13:17:23.552Z,1.60
2017-12-17T13:19:51.590Z,1.60
2017-12-17T13:22:19.744Z,1.60
2017-12-17T13:24:49.223Z,1.60
2017-12-17T13:27:17.605Z,1.60
2017-12-17T13:29:45.687Z,1.60
2017-12-17T13:32:13.732Z,1.60
2017-12-17T13:34:41.766Z,1.70
2017-12-17T13:37:10.163Z,1.70
2017-12-17T13:39:38.543Z,1.60
2017-12-17T13:42:06.931Z,1.70
2017-12-17T13:44:34.959Z,1.70
2017-12-17T13:47:04.114Z,1.70
2017-12-17T13:49:32.165Z,1.60
2017-12-17T13:52:00.262Z,1.70
2017-12-17T13:54:28.653Z,1.70
2017-12-17T13:56:57.020Z,1.70
2017-12-17T13:59:25.085Z,1.50
2017-12-17T14:01:55.484Z,1.40
2017-12-17T14:04:23.561Z,1.30
2017-12-17T14:06:51.666Z,1.30
2017-12-17T14:09:19.739Z,1.30
2017-12-17T14:11:47.782Z,1.20
2017-12-17T14:14:16.570Z,1.20
2017-12-17T14:16:45.271Z,1.20
2017-12-17T14:19:13.999Z,1.20
2017-12-17T14:21:42.704Z,1.20
2017-12-17T14:24:11.860Z,1.20
2017-12-17T14:26:40.277Z,1.20
2017-12-17T14:29:09.884Z,1.30
2017-12-17T14:31:39.054Z,1.50
2017-12-17T14:34:07.311Z,1.40
2017-12-17T14:36:35.407Z,1.40
2017-12-17T14:39:06.693Z,1.50
2017-12-17T14:41:39.540Z,1.50
2017-12-17T14:44:07.586Z,1.40
2017-12-17T14:46:35.663Z,1.30
2017-12-17T14:49:03.695Z,1.40
2017-12-17T14:51:32.524Z,1.40
2017-12-17T14:54:00.570Z,1.40
2017-12-17T14:56:28.662Z,1.50
2017-12-17T14:58:56.705Z,1.50
2017-12-17T15:01:25.542Z,1.50
2017-12-17T15:03:53.615Z,1.40
2017-12-17T15:06:21.671Z,1.40
2017-12-17T15:08:49.710Z,1.40
2017-12-17T15:11:18.615Z,1.40
2017-12-17T15:13:46.668Z,1.40
2017-12-17T15:16:15.628Z,1.40
2017-12-17T15:18:43.729Z,1.30
2017-12-17T15:21:12.559Z,1.30
2017-12-17T15:23:40.639Z,1.30
2017-12-17T15:26:08.723Z,1.30
2017-12-17T15:28:36.776Z,1.30
2017-12-17T15:31:04.851Z,1.30
2017-12-17T15:33:32.984Z,1.30
2017-12-17T15:36:01.207Z,1.30
2017-12-17T15:38:29.582Z,1.30
2017-12-17T15:40:58.324Z,1.30
2017-12-17T15:43:26.713Z,1.30
2017-12-17T15:45:55.516Z,1.30
2017-12-17T15:48:24.674Z,1.30
2017-12-17T15:50:53.054Z,1.30
2017-12-17T15:53:21.110Z,1.20
2017-12-17T15:55:49.474Z,1.20
2017-12-17T15:58:18.227Z,1.20
2017-12-17T16:00:47.028Z,1.10
2017-12-17T16:03:16.506Z,1.20
2017-12-17T16:05:45.259Z,1.10
2017-12-17T16:08:13.646Z,1.20
2017-12-17T16:10:42.056Z,1.20
2017-12-17T16:13:11.551Z,1.20
2017-12-17T16:15:39.711Z,1.10
2017-12-17T16:18:08.095Z,1.20
2017-12-17T16:20:36.509Z,1.20
2017-12-17T16:23:04.894Z,1.20
2017-12-17T16:25:34.030Z,1.20
2017-12-17T16:28:02.104Z,1.10
2017-12-17T16:30:30.415Z,1.10
2017-12-17T16:32:58.786Z,1.10
2017-12-17T16:35:27.512Z,1.10
2017-12-17T16:37:56.992Z,1.10
2017-12-17T16:40:25.694Z,1.10
2017-12-17T16:42:54.407Z,1.10
2017-12-17T16:45:23.884Z,1.10
2017-12-17T16:47:52.648Z,1.10
2017-12-17T16:50:21.347Z,1.10
2017-12-17T16:52:49.723Z,1.10
2017-12-17T16:55:18.427Z,1.10
2017-12-17T16:57:47.179Z,1.10
2017-12-17T17:00:19.128Z,1.10
2017-12-17T17:02:47.670Z,1.10
2017-12-17T17:05:16.031Z,1.10
2017-12-17T17:07:44.734Z,1.10
2017-12-17T17:10:13.457Z,1.10
2017-12-17T17:12:41.845Z,1.10
2017-12-17T17:15:10.680Z,1.10
2017-12-17T17:17:39.399Z,1.10
2017-12-17T17:20:08.705Z,1.10
2017-12-17T17:22:38.390Z,1.00
2017-12-17T17:25:06.786Z,1.00
2017-12-17T17:27:36.299Z,1.10
2017-12-17T17:30:05.439Z,1.10
2017-12-17T17:32:34.296Z,1.00
2017-12-17T17:35:03.449Z,1.10
2017-12-17T17:37:31.915Z,1.10
2017-12-17T17:40:00.671Z,1.20
2017-12-17T17:42:29.068Z,1.20
2017-12-17T17:44:57.105Z,1.10
2017-12-17T17:47:26.706Z,1.10
2017-12-17T17:49:55.186Z,1.10
2017-12-17T17:52:23.887Z,1.10
2017-12-17T17:54:53.371Z,1.10
2017-12-17T17:57:22.568Z,1.10
2017-12-17T17:59:51.380Z,1.10
2017-12-17T18:02:20.903Z,1.10
2017-12-17T18:04:50.348Z,1.10
2017-12-17T18:07:19.074Z,1.10
2017-12-17T18:09:48.569Z,1.10
2017-12-17T18:12:16.852Z,1.00
2017-12-17T18:14:45.640Z,1.10
2017-12-17T18:17:14.399Z,1.00
2017-12-17T18:19:43.106Z,1.10
2017-12-17T18:22:11.846Z,1.10
2017-12-17T18:24:40.556Z,1.10
2017-12-17T18:27:09.285Z,1.10
2017-12-17T18:29:38.794Z,1.00
2017-12-17T18:32:08.301Z,1.00
2017-12-17T18:34:37.063Z,1.00
2017-12-17T18:37:05.790Z,1.00
2017-12-17T18:39:34.519Z,1.00
2017-12-17T18:42:03.230Z,1.10
2017-12-17T18:44:31.946Z,1.10
2017-12-17T18:47:01.407Z,1.20
2017-12-17T18:49:30.157Z,1.10
2017-12-17T18:51:58.963Z,1.10
2017-12-17T18:54:27.696Z,1.10
2017-12-17T18:56:56.066Z,1.10
2017-12-17T18:59:24.787Z,1.10
2017-12-17T19:01:53.485Z,1.10
2017-12-17T19:04:22.984Z,1.10
2017-12-17T19:06:52.475Z,1.10
2017-12-17T19:09:21.226Z,1.00
2017-12-17T19:11:49.955Z,1.10
2017-12-17T19:14:18.718Z,1.00
2017-12-17T19:16:47.432Z,1.00
2017-12-17T19:19:16.137Z,1.10
2017-12-17T19:21:45.619Z,1.00
2017-12-17T19:24:14.332Z,1.00
2017-12-17T19:26:43.806Z,1.00
2017-12-17T19:29:12.519Z,1.00
2017-12-17T19:31:42.041Z,1.10
2017-12-17T19:34:10.791Z,1.00
2017-12-17T19:36:39.579Z,1.00
2017-12-17T19:39:08.140Z,1.00
2017-12-17T19:41:36.940Z,1.00
2017-12-17T19:44:05.684Z,1.00
2017-12-17T19:46:34.517Z,1.00
2017-12-17T19:49:03.287Z,1.00
2017-12-17T19:51:31.996Z,0.90
2017-12-17T19:54:00.874Z,1.00
2017-12-17T19:56:29.598Z,1.00
2017-12-17T19:58:58.337Z,0.90
2017-12-17T20:01:27.208Z,0.90
2017-12-17T20:03:56.651Z,1.00
2017-12-17T20:06:25.371Z,0.90
2017-12-17T20:08:54.820Z,0.90
2017-12-17T20:11:23.528Z,0.90
2017-12-17T20:13:52.282Z,0.90
2017-12-17T20:16:21.789Z,0.90
2017-12-17T20:18:51.100Z,0.80
2017-12-17T20:21:19.653Z,0.80
2017-12-17T20:23:49.146Z,0.80
2017-12-17T20:26:17.702Z,0.80
2017-12-17T20:28:46.238Z,0.80
2017-12-17T20:31:15.518Z,0.90
2017-12-17T20:33:44.295Z,0.80
2017-12-17T20:36:13.035Z,0.90
2017-12-17T20:38:41.763Z,0.90
2017-12-17T20:41:10.456Z,0.80
2017-12-17T20:43:39.191Z,0.80
2017-12-17T20:46:08.680Z,0.80
2017-12-17T20:48:37.400Z,0.70
2017-12-17T20:51:06.369Z,0.70
2017-12-17T20:53:35.845Z,0.70
2017-12-17T20:56:04.644Z,0.60
2017-12-17T20:58:33.391Z,0.70
2017-12-17T21:01:02.109Z,0.60
2017-12-17T21:03:30.884Z,0.60
2017-12-17T21:05:59.606Z,0.60
2017-12-17T21:08:28.303Z,0.70
2017-12-17T21:10:57.845Z,0.70
2017-12-17T21:13:26.559Z,0.60
2017-12-17T21:15:55.296Z,0.60
2017-12-17T21:18:24.748Z,0.70
2017-12-17T21:20:53.502Z,0.60
2017-12-17T21:23:22.203Z,0.70
2017-12-17T21:25:51.080Z,0.70
2017-12-17T21:28:19.809Z,0.70
2017-12-17T21:30:48.582Z,0.60
2017-12-17T21:33:17.309Z,0.60
2017-12-17T21:35:45.656Z,0.60
2017-12-17T21:38:14.369Z,0.70
2017-12-17T21:40:43.096Z,0.60
2017-12-17T21:43:12.571Z,0.60
2017-12-17T21:45:42.810Z,0.60
2017-12-17T21:48:11.534Z,0.60
2017-12-17T21:50:40.261Z,0.60
2017-12-17T21:53:08.970Z,0.60
2017-12-17T21:55:38.459Z,0.50
2017-12-17T21:58:07.395Z,0.50
2017-12-17T22:00:36.124Z,0.60
2017-12-17T22:03:04.859Z,0.50
2017-12-17T22:05:33.480Z,0.50
2017-12-17T22:08:02.202Z,0.50
2017-12-17T22:10:30.962Z,0.50
2017-12-17T22:12:59.684Z,0.50
2017-12-17T22:15:28.550Z,0.40
2017-12-17T22:17:57.280Z,0.50
2017-12-17T22:20:25.991Z,0.50
2017-12-17T22:22:54.711Z,0.50
2017-12-17T22:25:23.434Z,0.40
2017-12-17T22:27:52.222Z,0.40
2017-12-17T22:30:20.988Z,0.40
2017-12-17T22:32:49.721Z,0.50
2017-12-17T22:35:19.185Z,0.40
2017-12-17T22:37:48.056Z,0.40
2017-12-17T22:40:16.808Z,0.40
2017-12-17T22:42:46.327Z,0.50
2017-12-17T22:45:14.685Z,0.40
2017-12-17T22:47:44.187Z,0.50
2017-12-17T22:50:12.898Z,0.40
2017-12-17T22:52:42.384Z,0.60
2017-12-17T22:55:11.524Z,0.50
2017-12-17T22:57:40.281Z,0.50
2017-12-17T23:00:09.765Z,0.50
2017-12-17T23:02:38.212Z,0.50
2017-12-17T23:05:06.939Z,0.50
2017-12-17T23:07:37.168Z,0.40
2017-12-17T23:10:05.615Z,0.40
2017-12-17T23:12:34.043Z,0.50
2017-12-17T23:15:03.559Z,0.50
2017-12-17T23:17:33.019Z,0.50
2017-12-17T23:20:01.731Z,0.50
2017-12-17T23:22:30.433Z,0.50
2017-12-17T23:24:59.931Z,0.60
2017-12-17T23:27:29.548Z,0.60
2017-12-17T23:29:58.683Z,0.60
2017-12-17T23:32:27.404Z,0.50
2017-12-17T23:34:56.138Z,0.50
2017-12-17T23:37:24.823Z,0.50
2017-12-17T23:39:53.224Z,0.50
2017-12-17T23:42:21.923Z,0.50
2017-12-17T23:44:50.662Z,0.50
2017-12-17T23:47:20.123Z,0.40
2017-12-17T23:49:49.663Z,0.40
2017-12-17T23:52:18.158Z,0.30
2017-12-17T23:54:47.620Z,0.40
2017-12-17T23:57:15.991Z,0.30
2017-12-17T23:59:44.724Z,0.40
